Flight Track Log - Related Links

Times and Time Zones

All times are in EDT time to prevent confusion due to time zone crossing. See the UAL1635 flight status page for this flight to view local times or setup timezone preferences in your user account.

Time Position Orientation Groundspeed Altitude Reporting Facility
EDT Latitude Longitude Course Direction KTS MPH feet Rate Location/Type
Mon 02:08:14 PM 37.6667 -122.3333 70° East 201 231 2,000  Level Northern Cal TRACON
Mon 02:10:00 PM 37.6386 -122.4381 117° Southeast  Level FlightAware Approximate
Mon 02:10:15 PM 37.7908 -122.3050 10° North 266 306 6,800  Level Oakland Center
Mon 02:11:00 PM 37.6387 -122.2952 72° East  Level FlightAware Approximate
Mon 02:12:00 PM 37.8638 -122.0496 70° East  Level Estimated
Mon 02:12:00 PM 37.6825 -122.1516 58° Northeast  Level FlightAware Approximate
Mon 02:13:00 PM 37.7305 -122.0098 70° East  Level FlightAware Approximate
Mon 02:13:20 PM 37.9464 -122.1361 70° East 305 351 12,700  Level Oakland Center
Mon 02:15:23 PM 37.9728 -121.9039 82° East 335 386 17,900 2,108 Climbing Oakland Center
Mon 02:16:25 PM 37.9878 -121.7803 81° East 352 405 19,200 1,805 Climbing Oakland Center
Mon 02:17:26 PM 38.0153 -121.6528 75° East 374 430 21,600 1,951 Climbing Oakland Center
Mon 02:18:28 PM 38.0422 -121.5214 75° East 383 441 23,200 1,659 Climbing Oakland Center
Mon 02:19:29 PM 38.0711 -121.3833 75° East 395 455 25,000 1,603 Climbing Oakland Center
Mon 02:21:00 PM 38.1189 -121.1551 77° East  Level FlightAware Approximate
Mon 02:23:35 PM 38.1889 -120.8039 70° East 405 466 31,400  Level Oakland Center
Mon 02:25:00 PM 38.2460 -120.5928 78° East  Level Estimated
Mon 02:25:38 PM 38.2358 -120.5225 78° East 410 472 33,100  Level Oakland Center
Mon 02:26:39 PM 38.2611 -120.3786 77° East 416 479 34,000 732 Climbing Oakland Center
Mon 02:27:41 PM 38.2839 -120.2342 79° East 417 480 34,600 297 Climbing Oakland Center
Mon 02:28:00 PM 38.3223 -120.0831 76° East  Level FlightAware Approximate
Mon 02:29:00 PM 38.3654 -119.9351 70° East  Level FlightAware Approximate
Mon 02:30:01 PM 38.3425 -119.8797 78° East 434 499 35,000  Level Salt Lake Center
Mon 02:30:45 PM 38.3672 -119.7525 76° East 433 498 35,000  Level Oakland Center
Mon 02:32:48 PM 38.4161 -119.4642 78° East 427 491 35,000  Level Oakland Center
Mon 02:33:50 PM 38.4383 -119.3167 79° East 426 490 35,000  Level Oakland Center
Mon 02:34:51 PM 38.4667 -119.1417 78° East 424 488 35,000  Level Oakland Center
Mon 02:35:53 PM 38.4869 -118.9958 80° East 421 484 35,000  Level Oakland Center
Mon 02:37:55 PM 38.5333 -118.7044 78° East 422 486 35,000  Level Oakland Center
Mon 02:38:57 PM 38.5547 -118.5558 80° East 426 490 35,000  Level Oakland Center
Mon 02:41:00 PM 38.5997 -118.2625 79° East 425 489 35,000  Level Oakland Center
Mon 02:43:03 PM 38.6392 -117.9606 80° East 422 486 35,000  Level Oakland Center
Mon 02:44:04 PM 38.6675 -117.8025 77° East 416 479 35,000  Level Oakland Center
Mon 02:45:05 PM 38.6831 -117.6697 81° East 422 486 35,000  Level Oakland Center
Mon 02:46:07 PM 38.7072 -117.4947 80° East 428 493 35,000  Level Oakland Center
Mon 02:48:10 PM 38.7503 -117.1942 80° East 432 497 35,000  Level Oakland Center
Mon 02:48:33 PM 38.7575 -117.1289 82° East 431 496 35,000  Level Salt Lake Center
Mon 02:49:11 PM 38.7708 -117.0414 79° East 434 499 35,000  Level Oakland Center
Mon 02:50:12 PM 38.7914 -116.8911 80° East 430 495 35,000  Level Oakland Center
Mon 02:50:37 PM 38.7989 -116.8264 82° East 428 493 35,000  Level Salt Lake Center
Mon 02:52:15 PM 38.8325 -116.5919 80° East 426 490 35,000  Level Oakland Center
Mon 02:54:00 PM 38.8603 -116.3876 80° East  Level FlightAware Approximate
Mon 02:55:19 PM 38.8917 -116.1339 80° East 430 495 35,000  Level Oakland Center
Mon 02:55:46 PM 38.9022 -116.0469 81° East 428 493 35,000  Level Salt Lake Center
Mon 02:57:00 PM 38.9277 -115.8552 80° East  Level FlightAware Approximate
Mon 03:00:56 PM 38.9983 -115.2861 81° East 433 498 35,000  Level Salt Lake Center
Mon 03:02:00 PM 39.0353 -115.1245 74° East  Level Estimated
Mon 03:04:00 PM 39.0556 -114.8075 74° East 423 487 35,000  Level Salt Lake Center
Mon 03:04:00 PM 39.0661 -114.7641 80° East  Level FlightAware Approximate
Mon 03:05:00 PM 39.0851 -114.6079 81° East  Level FlightAware Approximate
Mon 03:06:00 PM 39.1038 -114.4516 81° East  Level FlightAware Approximate
Mon 03:06:04 PM 39.0903 -114.5047 82° East 428 493 35,000  Level Salt Lake Center
Mon 03:07:05 PM 39.1078 -114.3533 81° East 428 493 35,000  Level Salt Lake Center
Mon 03:08:07 PM 39.1250 -114.2014 82° East 430 495 35,000  Level Salt Lake Center
Mon 03:09:00 PM 39.2723 -114.0595 74° East  Level Estimated
Mon 03:09:09 PM 39.1428 -114.0497 81° East 429 494 35,000  Level Salt Lake Center
Mon 03:10:10 PM 39.1597 -113.8961 82° East 431 496 35,000  Level Salt Lake Center
Mon 03:11:12 PM 39.1758 -113.7422 82° East 433 498 35,000  Level Salt Lake Center
Mon 03:12:14 PM 39.1947 -113.5569 82° East 434 499 35,000  Level Salt Lake Center
Mon 03:13:15 PM 39.2117 -113.4031 82° East 433 498 35,000  Level Salt Lake Center
Mon 03:15:00 PM 39.2477 -113.1298 84° East  Level FlightAware Approximate
Mon 03:15:19 PM 39.2439 -113.0978 84° East 430 495 35,000  Level Salt Lake Center
Mon 03:17:00 PM 39.2691 -112.8329 83° East  Level FlightAware Approximate
Mon 03:17:22 PM 39.2739 -112.7900 83° East 435 501 35,000  Level Salt Lake Center
Mon 03:19:26 PM 39.3125 -112.4778 81° East 439 505 35,000  Level Salt Lake Center
Mon 03:20:27 PM 39.3669 -112.3014 68° East 443 510 35,000  Level Salt Lake Center
Mon 03:21:29 PM 39.4125 -112.1542 68° East 444 511 35,000  Level Salt Lake Center
Mon 03:22:31 PM 39.4581 -112.0089 68° East 439 505 35,000  Level Salt Lake Center
Mon 03:24:00 PM 39.5213 -111.7876 68° East  Level FlightAware Approximate
Mon 03:24:34 PM 39.5489 -111.7139 79° East 443 510 35,000  Level Salt Lake Center
Mon 03:26:38 PM 39.6192 -111.3786 75° East 440 506 35,000  Level Salt Lake Center
Mon 03:27:40 PM 39.6403 -111.2300 80° East 440 506 35,000  Level Salt Lake Center
Mon 03:28:41 PM 39.6614 -111.0811 80° East 439 505 35,000  Level Salt Lake Center
Mon 03:29:43 PM 39.6864 -110.9078 79° East 437 503 35,000  Level Salt Lake Center
Mon 03:30:45 PM 39.7067 -110.7592 80° East 437 503 35,000  Level Salt Lake Center
Mon 03:31:00 PM 39.6925 -110.7022 79° East  Level FlightAware Approximate
Mon 03:33:00 PM 39.8545 -109.6000 80° East  Level FlightAware Approximate
Mon 03:33:59 PM 39.7769 -110.2403 80° East 436 502 35,000  Level Denver Center
Mon 03:35:01 PM 39.7978 -110.0925 80° East 433 498 35,000  Level Denver Center
Mon 03:35:53 PM 39.8147 -109.9683 80° East 438 504 35,000  Level Salt Lake Center
Mon 03:36:55 PM 39.8481 -109.7956 76° East 440 506 35,000  Level Salt Lake Center
Mon 03:37:56 PM 39.8803 -109.6478 74° East 442 509 35,000  Level Salt Lake Center
Mon 03:38:58 PM 39.9169 -109.4731 75° East 446 513 35,000  Level Salt Lake Center
Mon 03:40:00 PM 39.9492 -109.3247 74° East 444 511 35,000  Level Salt Lake Center
Mon 03:41:01 PM 39.9806 -109.1750 75° East 445 512 35,000 324 Level Salt Lake Center
Mon 03:43:05 PM 40.0492 -108.8450 75° East 453 521 36,000 486 Climbing Salt Lake Center
Mon 03:45:08 PM 40.1181 -108.5111 75° East 458 527 37,000 326 Climbing Salt Lake Center
Mon 03:46:09 PM 40.1492 -108.3569 75° East 458 527 37,000  Level Salt Lake Center
Mon 03:47:11 PM 40.1864 -108.1769 75° East 456 525 37,000  Level Salt Lake Center
Mon 03:49:00 PM 40.2255 -107.9259 78° East  Level FlightAware Approximate
Mon 03:50:29 PM 40.2878 -107.6628 75° East 455 524 37,000  Level Denver Center
Mon 03:51:30 PM 40.3214 -107.4844 76° East 452 520 37,000  Level Denver Center
Mon 03:52:32 PM 40.3508 -107.3331 76° East 450 518 37,000  Level Denver Center
Mon 03:53:34 PM 40.3858 -107.1539 76° East 452 520 37,000  Level Denver Center
Mon 03:54:36 PM 40.4150 -107.0017 76° East 452 520 37,000  Level Denver Center
Mon 03:56:00 PM 40.4287 -106.8472 75° East  Level FlightAware Approximate
Mon 03:56:00 PM 40.4542 -106.7851 77° East  Level FlightAware Approximate
Mon 03:56:40 PM 40.4750 -106.6786 77° East 456 525 37,000  Level Denver Center
Mon 03:57:41 PM 40.5047 -106.5169 76° East 455 524 37,000  Level Denver Center
Mon 03:59:00 PM 40.5404 -106.3126 77° East  Level FlightAware Approximate
Mon 03:59:45 PM 40.5672 -106.1822 77° East 451 519 37,000  Level Denver Center
Mon 04:00:47 PM 40.5953 -106.0236 77° East 446 513 37,000  Level Denver Center
Mon 04:02:00 PM 40.6166 -105.8323 77° East  Level FlightAware Approximate
Mon 04:02:50 PM 40.6575 -105.6747 77° East 446 513 37,000  Level Denver Center
Mon 04:03:52 PM 40.6858 -105.5108 77° East 451 519 37,000  Level Denver Center
Mon 04:04:54 PM 40.7133 -105.3500 77° East 447 514 37,000  Level Denver Center
Mon 04:06:00 PM 40.7315 -105.1814 77° East  Level FlightAware Approximate
Mon 04:06:58 PM 40.7700 -105.0231 77° East 450 518 37,000  Level Denver Center
Mon 04:07:59 PM 40.7967 -104.8572 78° East 455 524 37,000  Level Denver Center
Mon 04:09:00 PM 40.8175 -104.7023 80° East  Level FlightAware Approximate
Mon 04:10:03 PM 40.8525 -104.5283 80° East 459 528 37,000  Level Denver Center
Mon 04:11:05 PM 40.8803 -104.3606 78° East 463 533 37,000  Level Denver Center
Mon 04:12:07 PM 40.9072 -104.1942 78° East 461 531 37,000  Level Denver Center
Mon 04:13:08 PM 40.9389 -103.9972 78° East 464 534 37,000  Level Denver Center
Mon 04:14:10 PM 40.9661 -103.8278 78° East 465 535 37,000  Level Denver Center
Mon 04:15:12 PM 40.9928 -103.6558 78° East 465 535 37,000  Level Denver Center
Mon 04:17:15 PM 41.0464 -103.3083 78° East 467 537 37,000  Level Denver Center
Mon 04:18:17 PM 41.0708 -103.1472 79° East 467 537 37,000  Level Denver Center
Mon 04:20:00 PM 41.0913 -102.8741 83° East  Level FlightAware Approximate
Mon 04:22:24 PM 41.1386 -102.4397 84° East 466 536 37,000  Level Denver Center
Mon 04:23:26 PM 41.1508 -102.2753 84° East 468 539 37,000  Level Denver Center
Mon 04:24:27 PM 41.1664 -102.0842 84° East 467 537 37,000  Level Denver Center
Mon 04:25:29 PM 41.1758 -101.9203 86° East 466 536 37,000  Level Denver Center
Mon 04:26:31 PM 41.1911 -101.7289 84° East 467 537 37,000  Level Denver Center
Mon 04:27:00 PM 41.1812 -101.7627 84° East  Level FlightAware Approximate
Mon 04:28:34 PM 41.2111 -101.4278 85° East 466 536 37,000  Level Denver Center
Mon 04:29:36 PM 41.2258 -101.2067 85° East 469 540 37,000  Level Denver Center
Mon 04:31:00 PM 41.2387 -100.9834 86° East  Level FlightAware Approximate
Mon 04:32:41 PM 41.2603 -100.6756 86° East 474 545 37,000  Level Denver Center
Mon 04:34:00 PM 41.2799 -100.4665 83° East  Level Estimated
Mon 04:34:44 PM 41.2808 -100.3119 83° East 473 544 37,000  Level Denver Center
Mon 04:35:46 PM 41.2903 -100.1436 86° East 475 547 37,000  Level Denver Center
Mon 04:36:48 PM 41.3017 -99.9503 85° East 471 542 37,000  Level Denver Center
Mon 04:37:49 PM 41.3097 -99.7831 86° East 472 543 37,000  Level Denver Center
Mon 04:38:00 PM 41.2966 -99.8661 86° East  Level FlightAware Approximate
Mon 04:39:00 PM 41.3160 -99.5938 87° East  Level FlightAware Approximate
Mon 04:39:53 PM 41.3278 -99.4178 87° East 472 543 37,000  Level Denver Center
Mon 04:40:54 PM 41.3367 -99.2436 86° East 470 541 37,000  Level Denver Center
Mon 04:41:56 PM 41.3447 -99.0675 86° East 473 544 37,000  Level Denver Center
Mon 04:42:58 PM 41.3531 -98.8897 86° East 474 545 37,000  Level Denver Center
Mon 04:43:54 PM 41.3589 -98.7344 87° East 474 545 37,000  Level Minneapolis Center
Mon 04:45:59 PM 41.3758 -98.3594 86° East 473 544 37,000  Level Minneapolis Center
Mon 04:47:01 PM 41.3806 -98.1861 88° East 469 540 37,000  Level Minneapolis Center
Mon 04:49:00 PM 41.3884 -97.8684 88° East  Level FlightAware Approximate
Mon 04:50:07 PM 41.1328 -97.8519 88° East 459 528 37,000  Level Minneapolis Center
Mon 04:51:09 PM 41.0944 -97.6953 108° East 470 541 37,000  Level Minneapolis Center
Mon 04:52:11 PM 41.1189 -97.4897 81° East 470 541 37,000  Level Minneapolis Center
Mon 04:54:15 PM 41.1603 -97.1458 81° East 470 541 37,000  Level Minneapolis Center
Mon 04:55:17 PM 41.1806 -96.9764 81° East 468 539 37,000  Level Minneapolis Center
Mon 04:56:19 PM 41.2006 -96.8072 81° East 465 535 37,000  Level Minneapolis Center
Mon 04:57:21 PM 41.2200 -96.6378 81° East 466 536 37,000  Level Minneapolis Center
Mon 04:58:23 PM 41.2397 -96.4706 81° East 462 532 37,000  Level Minneapolis Center
Mon 04:59:25 PM 41.2628 -96.2714 81° East 458 527 37,000  Level Minneapolis Center
Mon 05:00:39 PM 41.2797 -96.1047 82° East 456 525 37,000  Level Minneapolis Center
Mon 05:01:42 PM 41.3011 -95.9075 82° East 450 518 37,000  Level Minneapolis Center
Mon 05:03:00 PM 41.3158 -95.7022 84° East  Level FlightAware Approximate
Mon 05:04:48 PM 41.3547 -95.4014 85° East 443 510 37,000  Level Minneapolis Center
Mon 05:05:50 PM 41.3725 -95.2392 82° East 445 512 37,000  Level Minneapolis Center
Mon 05:06:52 PM 41.3883 -95.0736 83° East 448 516 37,000  Level Minneapolis Center
Mon 05:07:54 PM 41.4058 -94.9089 82° East 449 517 37,000  Level Minneapolis Center
Mon 05:08:56 PM 41.4239 -94.7431 82° East 452 520 37,000  Level Minneapolis Center
Mon 05:09:58 PM 41.4417 -94.5467 83° East 447 514 37,000  Level Minneapolis Center
Mon 05:10:00 PM 41.3886 -94.5950 85° East  Level FlightAware Approximate
Mon 05:11:00 PM 41.4575 -94.3847 83° East 443 510 37,000  Level Minneapolis Center
Mon 05:12:02 PM 41.4708 -94.2208 84° East 444 511 37,000  Level Minneapolis Center
Mon 05:13:04 PM 41.4847 -94.0644 83° East 440 506 37,000  Level Minneapolis Center
Mon 05:14:57 PM 41.5150 -93.7428 83° East 433 498 37,000  Level Chicago Center
Mon 05:15:59 PM 41.5286 -93.5817 84° East 438 504 37,000  Level Chicago Center
Mon 05:17:01 PM 41.5422 -93.4242 83° East 432 497 37,000  Level Chicago Center
Mon 05:18:13 PM 41.5581 -93.2403 83° East 427 491 37,000  Level Minneapolis Center
Mon 05:19:15 PM 41.5708 -93.0864 84° East 421 484 37,000  Level Minneapolis Center
Mon 05:21:10 PM 41.5961 -92.7739 84° East 424 488 37,000  Level Chicago Center
Mon 05:22:12 PM 41.6086 -92.6194 84° East 422 486 37,000  Level Chicago Center
Mon 05:24:25 PM 41.6361 -92.2825 84° East 420 483 37,000  Level Minneapolis Center
Mon 05:25:18 PM 41.6464 -92.1278 85° East 420 483 37,000  Level Chicago Center
Mon 05:26:20 PM 41.6583 -91.9753 84° East 420 483 37,000  Level Chicago Center
Mon 05:28:24 PM 41.6797 -91.6708 85° East 418 481 37,000  Level Chicago Center
Mon 05:30:00 PM 41.6197 -91.4286 108° East  Level FlightAware Approximate
Mon 05:30:28 PM 41.7036 -91.3350 108° East 419 482 37,000  Level Chicago Center
Mon 05:31:30 PM 41.7131 -91.1808 85° East 420 483 37,000  Level Chicago Center
Mon 05:32:32 PM 41.7225 -91.0275 85° East 421 484 37,000  Level Chicago Center
Mon 05:33:34 PM 41.7331 -90.8736 85° East 422 486 37,000  Level Chicago Center
Mon 05:34:37 PM 41.7450 -90.6867 85° East 424 488 37,000  Level Chicago Center
Mon 05:35:39 PM 41.7553 -90.5306 85° East 427 491 37,000  Level Chicago Center
Mon 05:37:00 PM 41.7467 -90.3158 93° East  Level FlightAware Approximate
Mon 05:40:49 PM 41.8014 -89.7061 94° East 427 491 37,000  Level Chicago Center
Mon 05:41:51 PM 41.8081 -89.5639 86° East 424 488 37,000  Level Chicago Center
Mon 05:43:00 PM 41.8070 -89.3805 90° East  Level Estimated
Mon 05:44:00 PM 41.6959 -89.2033 93° East  Level FlightAware Approximate
Mon 05:44:57 PM 41.8339 -89.0550 91° East 431 496 37,000  Level Chicago Center
Mon 05:45:00 PM 41.6878 -89.0445 94° East  Level FlightAware Approximate
Mon 05:45:59 PM 41.8417 -88.8958 86° East 430 495 37,000  Level Chicago Center
Mon 05:46:00 PM 41.6795 -88.8857 94° East  Level FlightAware Approximate
Mon 05:47:01 PM 41.8481 -88.7361 87° East 432 497 37,000  Level Chicago Center
Mon 05:48:03 PM 41.8550 -88.5786 87° East 426 490 37,000  Level Chicago Center
Mon 05:49:06 PM 41.8628 -88.3925 87° East 420 483 37,000  Level Chicago Center
Mon 05:50:00 PM 41.7943 -88.2647 91° East  Level Estimated
Mon 05:51:00 PM 41.8564 -88.0894 92° East  Level Estimated
Mon 05:52:12 PM 41.8817 -87.9278 92° East 413 475 37,000  Level Chicago Center
Mon 05:53:14 PM 41.8869 -87.7728 87° East 415 478 37,000  Level Chicago Center
Mon 05:54:16 PM 41.8925 -87.6175 87° East 416 479 37,000  Level Chicago Center
Mon 05:56:00 PM 41.8667 -87.3436 97° East  Level FlightAware Approximate
Mon 05:57:22 PM 41.9081 -87.1236 97° East 418 481 37,000  Level Chicago Center
Mon 05:59:00 PM 41.8273 -86.8951 94° East  Level FlightAware Approximate
Mon 05:59:26 PM 41.9183 -86.8156 94° East 415 478 37,000  Level Chicago Center
Mon 06:01:00 PM 41.8924 -86.5697 98° East  Level FlightAware Approximate
Mon 06:01:31 PM 41.9261 -86.4719 98° East 423 487 37,000  Level Chicago Center
Mon 06:03:00 PM 41.8951 -86.2405 100° East  Level FlightAware Approximate
Mon 06:03:35 PM 41.9336 -86.1586 100° East 420 483 37,000  Level Chicago Center
Mon 06:04:37 PM 41.9369 -86.0011 88° East 421 484 37,000  Level Chicago Center
Mon 06:06:00 PM 41.9253 -85.7823 94° East  Level Estimated
Mon 06:07:12 PM 41.9469 -85.5814 94° East 422 486 37,000  Level Cleveland Center
Mon 06:08:12 PM 41.9514 -85.4253 88° East 422 486 37,000  Level Cleveland Center
Mon 06:08:45 PM 41.9492 -85.3358 92° East 423 487 37,000  Level Chicago Center
Mon 06:09:47 PM 41.9519 -85.1761 89° East 424 488 37,000  Level Chicago Center
Mon 06:10:14 PM 41.9542 -85.1069 88° East 422 486 37,000  Level Cleveland Center
Mon 06:11:14 PM 41.9519 -84.9475 91° East 422 486 37,000  Level Cleveland Center
Mon 06:12:15 PM 41.9514 -84.7911 90° East 422 486 37,000  Level Cleveland Center
Mon 06:13:56 PM 41.9478 -84.5422 91° East 422 486 37,000  Level Chicago Center
Mon 06:14:13 PM 41.9481 -84.4781 90° East 422 486 37,000  Level Cleveland Center
Mon 06:15:14 PM 41.9469 -84.3217 90° East 422 486 37,000  Level Cleveland Center
Mon 06:16:14 PM 41.9411 -84.1817 93° East 422 486 37,000  Level Cleveland Center
Mon 06:17:15 PM 41.9394 -84.0253 91° East 422 486 37,000  Level Cleveland Center
Mon 06:18:12 PM 41.9358 -83.8658 92° East 422 486 37,000  Level Cleveland Center
Mon 06:19:13 PM 41.9339 -83.7122 91° East 422 486 37,000  Level Cleveland Center
Mon 06:21:13 PM 41.9322 -83.3800 90° East 417 480 37,000  Level Cleveland Center
Mon 06:22:14 PM 41.9336 -83.2236 89° East 422 486 37,000  Level Cleveland Center
Mon 06:23:14 PM 41.9289 -83.0617 92° East 427 491 37,000  Level Cleveland Center
Mon 06:25:12 PM 41.9292 -82.7489 90° East 422 486 37,000  Level Cleveland Center
Mon 06:26:13 PM 41.9236 -82.5925 93° East 422 486 37,000  Level Cleveland Center
Mon 06:27:12 PM 41.9264 -82.4336 89° East 422 486 37,000  Level Cleveland Center
Mon 06:28:13 PM 41.9247 -82.2689 91° East 427 491 37,000  Level Cleveland Center
Mon 06:29:13 PM 41.9225 -82.1292 91° East 427 491 37,000  Level Cleveland Center
Mon 06:31:15 PM 41.9161 -81.7914 91° East 430 495 37,000  Level Cleveland Center
Mon 06:32:13 PM 41.8989 -81.6347 98° East 425 489 37,000  Level Cleveland Center
Mon 06:33:13 PM 41.8836 -81.4783 97° East 425 489 37,000  Level Cleveland Center
Mon 06:34:13 PM 41.8722 -81.3194 95° East 425 489 37,000  Level Cleveland Center
Mon 06:35:14 PM 41.8564 -81.1631 98° East 425 489 37,000  Level Cleveland Center
Mon 06:36:15 PM 41.8403 -81.0039 98° East 425 489 37,000  Level Cleveland Center
Mon 06:37:13 PM 41.8264 -80.8422 97° East 425 489 37,000  Level Cleveland Center
Mon 06:38:13 PM 41.8119 -80.7003 98° East 425 489 37,000  Level Cleveland Center
Mon 06:39:14 PM 41.7953 -80.5442 98° East 426 490 37,000  Level Cleveland Center
Mon 06:40:15 PM 41.7806 -80.3828 97° East 431 496 37,000  Level Cleveland Center
Mon 06:41:13 PM 41.7656 -80.2239 97° East 431 496 37,000  Level Cleveland Center
Mon 06:42:14 PM 41.7483 -80.0656 98° East 425 489 37,000  Level Cleveland Center
Mon 06:43:14 PM 41.7286 -79.8958 99° East 425 489 37,000  Level Cleveland Center
Mon 06:44:12 PM 41.7150 -79.7347 96° East 432 497 37,000  Level Cleveland Center
Mon 06:45:12 PM 41.6972 -79.5764 99° East 432 497 37,000  Level Cleveland Center
Mon 06:46:13 PM 41.6811 -79.4183 98° East 432 497 37,000  Level Cleveland Center
Mon 06:47:14 PM 41.6647 -79.2711 98° East 432 497 37,000  Level Cleveland Center
Mon 06:48:14 PM 41.6439 -79.0939 99° East 432 497 37,000  Level Cleveland Center
Mon 06:49:12 PM 41.6272 -78.9331 98° East 432 497 37,000  Level Cleveland Center
Mon 06:51:14 PM 41.5886 -78.6119 99° East 437 503 37,000 -950 Level Cleveland Center
Mon 06:54:00 PM 41.5535 -78.3799 100° East  Level FlightAware Approximate
Mon 06:55:31 PM 41.5058 -77.9239 100° East 432 497 31,000  Level New York Center
Mon 06:56:29 PM 41.4822 -77.7606 101° East 432 497 31,000  Level New York Center
Mon 06:57:30 PM 41.4586 -77.5975 101° East 437 503 31,000  Level New York Center
Mon 06:58:30 PM 41.4381 -77.4431 100° East 447 514 31,000  Level New York Center
Mon 06:59:29 PM 41.4106 -77.2633 101° East 452 520 31,000 -880 Level New York Center
Mon 07:01:00 PM 41.3756 -77.0367 102° East  Level FlightAware Approximate
Mon 07:03:30 PM 41.2886 -76.5997 112° Southeast 457 526 26,600  Level New York Center
Mon 07:05:31 PM 41.2072 -76.3006 110° East 430 495 21,800 -2,175 Descending New York Center
Mon 07:07:30 PM 41.1397 -76.0442 109° East 390 449 17,900 -1,733 Descending New York Center
Mon 07:08:00 PM 41.1233 -76.0005 112° Southeast  Level FlightAware Approximate
Mon 07:08:31 PM 41.1003 -75.9006 110° East 375 432 16,600  Level New York Center
Mon 07:09:00 PM 41.0788 -75.8559 112° Southeast  Level FlightAware Approximate
Mon 07:10:29 PM 41.0372 -75.6647 109° East 363 418 14,300  Level New York Center
Mon 07:11:30 PM 40.9989 -75.5328 111° Southeast 350 403 13,000 -1,017 Descending New York Center
Mon 07:13:00 PM 40.9324 -75.3227 118° Southeast  Level FlightAware Approximate
Mon 07:14:31 PM 40.9000 -75.1833 118° Southeast 313 360 10,200  Level New York TRACON
Mon 07:15:31 PM 40.8833 -75.0833 102° East 273 314 9,300 -1,150 Descending New York TRACON
Mon 07:16:31 PM 40.8500 -75.0000 118° Southeast 271 312 7,900 -1,095 Descending New York TRACON
Mon 07:17:37 PM 40.8500 -74.8833 90° East 284 327 7,000 -571 Descending New York TRACON
Mon 07:18:37 PM 40.8667 -74.7833 78° East 275 316 6,700 -531 Descending New York TRACON
Mon 07:19:30 PM 40.9000 -74.7161 57° Northeast 267 307 6,000 -467 Descending New York Center
Mon 07:21:00 PM 40.8222 -74.5098 101° East  Level Estimated
Mon 07:21:37 PM 40.9833 -74.5167 101° East 277 319 5,300  Level New York TRACON
Mon 07:22:29 PM 41.0144 -74.4561 56° Northeast 272 313 5,000 -158 Descending New York Center
Mon 07:23:31 PM 41.0333 -74.3667 74° East 241 277 5,000  Level New York TRACON
Mon 07:24:37 PM 41.0167 -74.2833 105° East 227 261 5,000 -381 Level New York TRACON
Mon 07:25:37 PM 40.9833 -74.2000 118° Southeast 225 259 4,200 -500 Descending New York TRACON
Mon 07:26:37 PM 40.9500 -74.1500 131° Southeast 216 249 4,000 -359 Descending New York TRACON
Mon 07:28:00 PM 40.7870 -74.1618 169° South  Level Estimated
Mon 07:29:31 PM 40.8333 -74.0833 169° South 172 198 2,800  Level New York TRACON
Mon 07:30:31 PM 40.7833 -74.1000 194° South 172 198 1,900 -900 Descending New York TRACON
Mon 07:31:31 PM 40.7500 -74.1333 217° Southwest 155 178 1,000 -850 Descending New York TRACON
Mon 07:32:31 PM 40.7000 -74.1500 194° South 142 163 200 -800 Descending New York TRACON

Login

Don't have an account? Register now (free) for customized features, flight alerts, and more!